sensor_id;sensor_type;location;lat;lon;timestamp;temperature;humidity
21502;DHT22;27639;48.674;9.242;2023-04-06T00:01:01;7.10;41.40
21502;DHT22;27639;48.674;9.242;2023-04-06T00:03:26;7.10;41.70
21502;DHT22;27639;48.674;9.242;2023-04-06T00:05:52;7.00;41.80
21502;DHT22;27639;48.674;9.242;2023-04-06T00:08:18;7.00;42.00
21502;DHT22;27639;48.674;9.242;2023-04-06T00:10:44;6.90;42.00
21502;DHT22;27639;48.674;9.242;2023-04-06T00:13:10;6.80;42.10
21502;DHT22;27639;48.674;9.242;2023-04-06T00:15:35;6.80;42.10
21502;DHT22;27639;48.674;9.242;2023-04-06T00:18:02;6.70;42.10
21502;DHT22;27639;48.674;9.242;2023-04-06T00:20:27;6.70;42.10
21502;DHT22;27639;48.674;9.242;2023-04-06T00:22:53;6.70;42.10
21502;DHT22;27639;48.674;9.242;2023-04-06T00:25:19;6.60;42.10
21502;DHT22;27639;48.674;9.242;2023-04-06T00:27:45;6.60;42.10
21502;DHT22;27639;48.674;9.242;2023-04-06T00:30:11;6.60;42.20
21502;DHT22;27639;48.674;9.242;2023-04-06T00:32:36;6.60;42.20
21502;DHT22;27639;48.674;9.242;2023-04-06T00:35:03;6.60;42.40
21502;DHT22;27639;48.674;9.242;2023-04-06T00:37:29;6.60;42.40
21502;DHT22;27639;48.674;9.242;2023-04-06T00:39:54;6.60;42.50
21502;DHT22;27639;48.674;9.242;2023-04-06T00:42:21;6.60;42.40
21502;DHT22;27639;48.674;9.242;2023-04-06T00:44:56;6.60;42.40
21502;DHT22;27639;48.674;9.242;2023-04-06T00:47:22;6.50;42.50
21502;DHT22;27639;48.674;9.242;2023-04-06T00:49:48;6.50;42.80
21502;DHT22;27639;48.674;9.242;2023-04-06T00:52:14;6.50;42.80
21502;DHT22;27639;48.674;9.242;2023-04-06T00:54:40;6.40;42.80
21502;DHT22;27639;48.674;9.242;2023-04-06T00:57:06;6.40;43.00
21502;DHT22;27639;48.674;9.242;2023-04-06T00:59:32;6.40;43.00
21502;DHT22;27639;48.674;9.242;2023-04-06T01:01:57;6.30;43.00
21502;DHT22;27639;48.674;9.242;2023-04-06T01:04:23;6.30;43.00
21502;DHT22;27639;48.674;9.242;2023-04-06T01:06:49;6.30;43.10
21502;DHT22;27639;48.674;9.242;2023-04-06T01:09:16;6.30;43.30
21502;DHT22;27639;48.674;9.242;2023-04-06T01:11:42;6.20;43.30
21502;DHT22;27639;48.674;9.242;2023-04-06T01:14:08;6.20;43.30
21502;DHT22;27639;48.674;9.242;2023-04-06T01:16:34;6.10;43.30
21502;DHT22;27639;48.674;9.242;2023-04-06T01:19:00;6.10;43.60
21502;DHT22;27639;48.674;9.242;2023-04-06T01:21:26;6.10;43.70
21502;DHT22;27639;48.674;9.242;2023-04-06T01:23:51;6.10;43.80
21502;DHT22;27639;48.674;9.242;2023-04-06T01:26:17;6.00;43.90
21502;DHT22;27639;48.674;9.242;2023-04-06T01:28:42;6.00;43.90
21502;DHT22;27639;48.674;9.242;2023-04-06T01:31:11;5.90;44.00
21502;DHT22;27639;48.674;9.242;2023-04-06T01:33:37;5.90;44.10
21502;DHT22;27639;48.674;9.242;2023-04-06T01:36:03;5.90;44.20
21502;DHT22;27639;48.674;9.242;2023-04-06T01:38:29;5.90;44.20
21502;DHT22;27639;48.674;9.242;2023-04-06T01:40:55;5.80;44.20
21502;DHT22;27639;48.674;9.242;2023-04-06T01:43:20;5.80;44.20
21502;DHT22;27639;48.674;9.242;2023-04-06T01:45:46;5.70;44.10
21502;DHT22;27639;48.674;9.242;2023-04-06T01:48:12;5.70;44.40
21502;DHT22;27639;48.674;9.242;2023-04-06T01:50:37;5.70;44.50
21502;DHT22;27639;48.674;9.242;2023-04-06T01:53:03;5.60;44.60
21502;DHT22;27639;48.674;9.242;2023-04-06T01:55:28;5.60;44.50
21502;DHT22;27639;48.674;9.242;2023-04-06T01:57:54;5.50;44.60
21502;DHT22;27639;48.674;9.242;2023-04-06T02:00:20;5.50;44.70
21502;DHT22;27639;48.674;9.242;2023-04-06T02:02:46;5.50;44.70
21502;DHT22;27639;48.674;9.242;2023-04-06T02:05:12;5.60;44.70
21502;DHT22;27639;48.674;9.242;2023-04-06T02:07:37;5.60;44.80
21502;DHT22;27639;48.674;9.242;2023-04-06T02:10:11;5.60;44.90
21502;DHT22;27639;48.674;9.242;2023-04-06T02:12:37;5.50;44.80
21502;DHT22;27639;48.674;9.242;2023-04-06T02:15:02;5.40;44.90
21502;DHT22;27639;48.674;9.242;2023-04-06T02:17:28;5.40;45.10
21502;DHT22;27639;48.674;9.242;2023-04-06T02:19:54;5.40;45.10
21502;DHT22;27639;48.674;9.242;2023-04-06T02:22:19;5.40;45.10
21502;DHT22;27639;48.674;9.242;2023-04-06T02:24:45;5.40;45.10
21502;DHT22;27639;48.674;9.242;2023-04-06T02:27:13;5.40;45.10
21502;DHT22;27639;48.674;9.242;2023-04-06T02:29:38;5.40;45.10
21502;DHT22;27639;48.674;9.242;2023-04-06T02:32:04;5.40;45.00
21502;DHT22;27639;48.674;9.242;2023-04-06T02:34:30;5.40;45.10
21502;DHT22;27639;48.674;9.242;2023-04-06T02:36:56;5.40;45.30
21502;DHT22;27639;48.674;9.242;2023-04-06T02:39:21;5.30;45.30
21502;DHT22;27639;48.674;9.242;2023-04-06T02:41:47;5.30;45.40
21502;DHT22;27639;48.674;9.242;2023-04-06T02:44:12;5.20;45.40
21502;DHT22;27639;48.674;9.242;2023-04-06T02:46:38;5.20;45.30
21502;DHT22;27639;48.674;9.242;2023-04-06T02:49:03;5.20;45.60
21502;DHT22;27639;48.674;9.242;2023-04-06T02:51:29;5.20;45.60
21502;DHT22;27639;48.674;9.242;2023-04-06T02:53:55;5.20;45.80
21502;DHT22;27639;48.674;9.242;2023-04-06T02:56:21;5.20;45.80
21502;DHT22;27639;48.674;9.242;2023-04-06T02:58:47;5.20;45.80
21502;DHT22;27639;48.674;9.242;2023-04-06T03:01:12;5.10;45.90
21502;DHT22;27639;48.674;9.242;2023-04-06T03:03:38;5.10;45.90
21502;DHT22;27639;48.674;9.242;2023-04-06T03:06:04;5.10;45.90
21502;DHT22;27639;48.674;9.242;2023-04-06T03:08:29;5.00;45.90
21502;DHT22;27639;48.674;9.242;2023-04-06T03:10:55;5.00;46.10
21502;DHT22;27639;48.674;9.242;2023-04-06T03:13:21;5.00;46.20
21502;DHT22;27639;48.674;9.242;2023-04-06T03:15:46;4.90;46.20
21502;DHT22;27639;48.674;9.242;2023-04-06T03:18:12;5.00;46.30
21502;DHT22;27639;48.674;9.242;2023-04-06T03:20:38;5.00;46.30
21502;DHT22;27639;48.674;9.242;2023-04-06T03:23:03;5.00;46.30
21502;DHT22;27639;48.674;9.242;2023-04-06T03:25:29;5.00;46.30
21502;DHT22;27639;48.674;9.242;2023-04-06T03:27:57;5.00;46.30
21502;DHT22;27639;48.674;9.242;2023-04-06T03:30:23;4.90;46.30
21502;DHT22;27639;48.674;9.242;2023-04-06T03:32:48;4.90;46.30
21502;DHT22;27639;48.674;9.242;2023-04-06T03:35:14;4.80;46.30
21502;DHT22;27639;48.674;9.242;2023-04-06T03:37:40;4.80;46.40
21502;DHT22;27639;48.674;9.242;2023-04-06T03:40:06;4.80;46.40
21502;DHT22;27639;48.674;9.242;2023-04-06T03:42:31;4.80;46.50
21502;DHT22;27639;48.674;9.242;2023-04-06T03:44:58;4.80;46.40
21502;DHT22;27639;48.674;9.242;2023-04-06T03:47:24;4.80;46.40
21502;DHT22;27639;48.674;9.242;2023-04-06T03:49:50;4.80;46.40
21502;DHT22;27639;48.674;9.242;2023-04-06T03:52:16;4.80;46.40
21502;DHT22;27639;48.674;9.242;2023-04-06T03:54:41;4.70;46.40
21502;DHT22;27639;48.674;9.242;2023-04-06T03:57:07;4.70;46.30
21502;DHT22;27639;48.674;9.242;2023-04-06T03:59:33;4.80;46.60
21502;DHT22;27639;48.674;9.242;2023-04-06T04:01:58;4.70;46.60
21502;DHT22;27639;48.674;9.242;2023-04-06T04:04:24;4.70;46.70
21502;DHT22;27639;48.674;9.242;2023-04-06T04:06:50;4.70;46.80
21502;DHT22;27639;48.674;9.242;2023-04-06T04:09:15;4.70;46.90
21502;DHT22;27639;48.674;9.242;2023-04-06T04:11:41;4.60;46.90
21502;DHT22;27639;48.674;9.242;2023-04-06T04:14:07;4.60;46.90
21502;DHT22;27639;48.674;9.242;2023-04-06T04:16:32;4.60;46.90
21502;DHT22;27639;48.674;9.242;2023-04-06T04:18:58;4.60;46.90
21502;DHT22;27639;48.674;9.242;2023-04-06T04:21:24;4.60;47.00
21502;DHT22;27639;48.674;9.242;2023-04-06T04:23:51;4.60;47.00
21502;DHT22;27639;48.674;9.242;2023-04-06T04:26:18;4.60;47.00
21502;DHT22;27639;48.674;9.242;2023-04-06T04:28:43;4.50;46.90
21502;DHT22;27639;48.674;9.242;2023-04-06T04:31:09;4.50;46.90
21502;DHT22;27639;48.674;9.242;2023-04-06T04:33:34;4.40;46.80
21502;DHT22;27639;48.674;9.242;2023-04-06T04:36:00;4.50;46.90
21502;DHT22;27639;48.674;9.242;2023-04-06T04:38:26;4.40;46.80
21502;DHT22;27639;48.674;9.242;2023-04-06T04:40:51;4.40;46.80
21502;DHT22;27639;48.674;9.242;2023-04-06T04:43:17;4.40;46.80
21502;DHT22;27639;48.674;9.242;2023-04-06T04:45:42;4.40;46.90
21502;DHT22;27639;48.674;9.242;2023-04-06T04:48:08;4.40;46.80
21502;DHT22;27639;48.674;9.242;2023-04-06T04:50:34;4.30;46.70
21502;DHT22;27639;48.674;9.242;2023-04-06T04:53:00;4.30;47.10
21502;DHT22;27639;48.674;9.242;2023-04-06T04:55:25;4.30;47.10
21502;DHT22;27639;48.674;9.242;2023-04-06T04:57:51;4.30;47.30
21502;DHT22;27639;48.674;9.242;2023-04-06T05:00:17;4.30;47.30
21502;DHT22;27639;48.674;9.242;2023-04-06T05:02:42;4.30;47.30
21502;DHT22;27639;48.674;9.242;2023-04-06T05:05:08;4.30;47.40
21502;DHT22;27639;48.674;9.242;2023-04-06T05:07:34;4.40;47.50
21502;DHT22;27639;48.674;9.242;2023-04-06T05:10:00;4.30;47.60
21502;DHT22;27639;48.674;9.242;2023-04-06T05:12:26;4.30;47.60
21502;DHT22;27639;48.674;9.242;2023-04-06T05:14:54;4.30;47.70
21502;DHT22;27639;48.674;9.242;2023-04-06T05:17:20;4.30;47.70
21502;DHT22;27639;48.674;9.242;2023-04-06T05:19:46;4.40;47.80
21502;DHT22;27639;48.674;9.242;2023-04-06T05:22:11;4.40;47.80
21502;DHT22;27639;48.674;9.242;2023-04-06T05:24:39;4.40;47.80
21502;DHT22;27639;48.674;9.242;2023-04-06T05:27:05;4.40;47.80
21502;DHT22;27639;48.674;9.242;2023-04-06T05:29:31;4.50;47.90
21502;DHT22;27639;48.674;9.242;2023-04-06T05:31:57;4.50;47.90
21502;DHT22;27639;48.674;9.242;2023-04-06T05:34:23;4.50;47.90
21502;DHT22;27639;48.674;9.242;2023-04-06T05:36:48;4.50;47.80
21502;DHT22;27639;48.674;9.242;2023-04-06T05:39:14;4.60;47.70
21502;DHT22;27639;48.674;9.242;2023-04-06T05:41:40;4.60;47.50
21502;DHT22;27639;48.674;9.242;2023-04-06T05:44:06;4.50;47.50
21502;DHT22;27639;48.674;9.242;2023-04-06T05:46:32;4.60;48.20
21502;DHT22;27639;48.674;9.242;2023-04-06T05:48:57;4.90;48.70
21502;DHT22;27639;48.674;9.242;2023-04-06T05:51:23;5.40;48.50
21502;DHT22;27639;48.674;9.242;2023-04-06T05:53:48;5.80;47.90
21502;DHT22;27639;48.674;9.242;2023-04-06T05:56:14;6.00;47.60
21502;DHT22;27639;48.674;9.242;2023-04-06T05:58:41;6.10;46.90
21502;DHT22;27639;48.674;9.242;2023-04-06T06:01:06;6.10;46.60
21502;DHT22;27639;48.674;9.242;2023-04-06T06:03:32;6.00;46.40
21502;DHT22;27639;48.674;9.242;2023-04-06T06:06:01;5.90;46.50
21502;DHT22;27639;48.674;9.242;2023-04-06T06:08:27;5.70;46.50
21502;DHT22;27639;48.674;9.242;2023-04-06T06:10:53;5.70;47.10
21502;DHT22;27639;48.674;9.242;2023-04-06T06:13:19;5.90;47.90
21502;DHT22;27639;48.674;9.242;2023-04-06T06:15:46;6.20;48.20
21502;DHT22;27639;48.674;9.242;2023-04-06T06:18:11;6.60;48.50
21502;DHT22;27639;48.674;9.242;2023-04-06T06:20:37;6.90;48.50
21502;DHT22;27639;48.674;9.242;2023-04-06T06:23:03;7.30;48.20
21502;DHT22;27639;48.674;9.242;2023-04-06T06:25:28;7.70;47.50
21502;DHT22;27639;48.674;9.242;2023-04-06T06:27:56;7.90;46.70
21502;DHT22;27639;48.674;9.242;2023-04-06T06:30:22;8.10;46.40
21502;DHT22;27639;48.674;9.242;2023-04-06T06:32:48;8.30;46.30
21502;DHT22;27639;48.674;9.242;2023-04-06T06:35:13;8.60;46.30
21502;DHT22;27639;48.674;9.242;2023-04-06T06:37:39;8.90;45.70
21502;DHT22;27639;48.674;9.242;2023-04-06T06:40:05;9.10;45.80
21502;DHT22;27639;48.674;9.242;2023-04-06T06:42:31;9.50;45.60
21502;DHT22;27639;48.674;9.242;2023-04-06T06:44:56;9.80;44.70
21502;DHT22;27639;48.674;9.242;2023-04-06T06:47:22;10.10;43.00
21502;DHT22;27639;48.674;9.242;2023-04-06T06:49:48;10.40;42.60
21502;DHT22;27639;48.674;9.242;2023-04-06T06:52:13;10.50;41.90
21502;DHT22;27639;48.674;9.242;2023-04-06T06:54:39;10.40;41.90
21502;DHT22;27639;48.674;9.242;2023-04-06T06:57:05;10.40;41.70
21502;DHT22;27639;48.674;9.242;2023-04-06T06:59:30;10.50;41.80
21502;DHT22;27639;48.674;9.242;2023-04-06T07:01:56;10.70;41.90
21502;DHT22;27639;48.674;9.242;2023-04-06T07:04:21;10.70;41.30
21502;DHT22;27639;48.674;9.242;2023-04-06T07:06:47;10.70;41.30
21502;DHT22;27639;48.674;9.242;2023-04-06T07:09:13;10.70;41.20
21502;DHT22;27639;48.674;9.242;2023-04-06T07:11:38;10.60;41.00
21502;DHT22;27639;48.674;9.242;2023-04-06T07:14:04;10.50;41.30
21502;DHT22;27639;48.674;9.242;2023-04-06T07:16:30;10.50;41.20
21502;DHT22;27639;48.674;9.242;2023-04-06T07:18:55;10.60;41.10
21502;DHT22;27639;48.674;9.242;2023-04-06T07:21:21;10.60;41.10
21502;DHT22;27639;48.674;9.242;2023-04-06T07:23:47;10.70;41.00
21502;DHT22;27639;48.674;9.242;2023-04-06T07:26:13;10.70;40.70
21502;DHT22;27639;48.674;9.242;2023-04-06T07:28:39;10.70;40.70
21502;DHT22;27639;48.674;9.242;2023-04-06T07:31:05;10.80;40.60
21502;DHT22;27639;48.674;9.242;2023-04-06T07:33:30;10.80;40.50
21502;DHT22;27639;48.674;9.242;2023-04-06T07:35:56;10.90;40.30
21502;DHT22;27639;48.674;9.242;2023-04-06T07:38:23;11.00;40.50
21502;DHT22;27639;48.674;9.242;2023-04-06T07:40:49;11.30;40.50
21502;DHT22;27639;48.674;9.242;2023-04-06T07:43:15;11.40;40.40
21502;DHT22;27639;48.674;9.242;2023-04-06T07:45:41;11.60;40.40
21502;DHT22;27639;48.674;9.242;2023-04-06T07:48:07;11.80;40.30
21502;DHT22;27639;48.674;9.242;2023-04-06T07:50:33;12.00;40.00
21502;DHT22;27639;48.674;9.242;2023-04-06T07:52:58;12.20;39.80
21502;DHT22;27639;48.674;9.242;2023-04-06T07:55:25;12.30;39.60
21502;DHT22;27639;48.674;9.242;2023-04-06T07:57:50;12.40;39.50
21502;DHT22;27639;48.674;9.242;2023-04-06T08:00:16;12.60;39.20
21502;DHT22;27639;48.674;9.242;2023-04-06T08:02:42;12.70;38.60
21502;DHT22;27639;48.674;9.242;2023-04-06T08:05:08;12.70;38.40
21502;DHT22;27639;48.674;9.242;2023-04-06T08:07:34;12.70;38.20
21502;DHT22;27639;48.674;9.242;2023-04-06T08:10:01;12.90;38.30
21502;DHT22;27639;48.674;9.242;2023-04-06T08:12:27;13.10;38.10
21502;DHT22;27639;48.674;9.242;2023-04-06T08:14:52;13.20;37.70
21502;DHT22;27639;48.674;9.242;2023-04-06T08:17:18;13.30;37.20
21502;DHT22;27639;48.674;9.242;2023-04-06T08:19:44;13.40;37.10
21502;DHT22;27639;48.674;9.242;2023-04-06T08:22:11;13.50;37.00
21502;DHT22;27639;48.674;9.242;2023-04-06T08:24:36;13.60;37.50
21502;DHT22;27639;48.674;9.242;2023-04-06T08:27:02;13.60;37.70
21502;DHT22;27639;48.674;9.242;2023-04-06T08:29:28;13.70;37.10
21502;DHT22;27639;48.674;9.242;2023-04-06T08:31:54;13.70;36.60
21502;DHT22;27639;48.674;9.242;2023-04-06T08:34:20;13.90;36.30
21502;DHT22;27639;48.674;9.242;2023-04-06T08:36:46;14.10;36.50
21502;DHT22;27639;48.674;9.242;2023-04-06T08:39:12;14.20;36.40
21502;DHT22;27639;48.674;9.242;2023-04-06T08:41:37;14.50;36.20
21502;DHT22;27639;48.674;9.242;2023-04-06T08:44:03;14.50;35.70
21502;DHT22;27639;48.674;9.242;2023-04-06T08:46:30;14.50;35.60
21502;DHT22;27639;48.674;9.242;2023-04-06T08:49:02;14.60;36.00
21502;DHT22;27639;48.674;9.242;2023-04-06T08:51:29;14.60;35.80
21502;DHT22;27639;48.674;9.242;2023-04-06T08:53:59;14.80;35.80
21502;DHT22;27639;48.674;9.242;2023-04-06T08:56:26;15.00;35.30
21502;DHT22;27639;48.674;9.242;2023-04-06T08:58:53;15.20;34.70
21502;DHT22;27639;48.674;9.242;2023-04-06T09:01:25;15.50;34.40
21502;DHT22;27639;48.674;9.242;2023-04-06T09:03:53;15.60;34.10
21502;DHT22;27639;48.674;9.242;2023-04-06T09:06:21;15.50;34.00
21502;DHT22;27639;48.674;9.242;2023-04-06T09:08:46;15.60;33.70
21502;DHT22;27639;48.674;9.242;2023-04-06T09:11:12;15.60;33.30
21502;DHT22;27639;48.674;9.242;2023-04-06T09:14:04;15.70;33.60
21502;DHT22;27639;48.674;9.242;2023-04-06T09:16:39;15.80;33.20
21502;DHT22;27639;48.674;9.242;2023-04-06T09:19:06;15.80;32.80
21502;DHT22;27639;48.674;9.242;2023-04-06T09:21:31;15.70;32.50
21502;DHT22;27639;48.674;9.242;2023-04-06T09:24:01;15.60;32.70
21502;DHT22;27639;48.674;9.242;2023-04-06T09:26:27;15.60;32.80
21502;DHT22;27639;48.674;9.242;2023-04-06T09:28:53;15.70;32.20
21502;DHT22;27639;48.674;9.242;2023-04-06T09:31:28;15.80;31.50
21502;DHT22;27639;48.674;9.242;2023-04-06T09:33:54;15.70;31.70
21502;DHT22;27639;48.674;9.242;2023-04-06T09:36:32;15.80;31.50
21502;DHT22;27639;48.674;9.242;2023-04-06T09:39:02;16.00;31.00
21502;DHT22;27639;48.674;9.242;2023-04-06T09:41:33;15.90;30.60
21502;DHT22;27639;48.674;9.242;2023-04-06T09:44:11;16.00;30.40
21502;DHT22;27639;48.674;9.242;2023-04-06T09:46:41;16.10;30.70
21502;DHT22;27639;48.674;9.242;2023-04-06T09:49:09;16.10;30.70
21502;DHT22;27639;48.674;9.242;2023-04-06T09:51:46;16.10;30.40
21502;DHT22;27639;48.674;9.242;2023-04-06T09:54:20;16.30;29.80
21502;DHT22;27639;48.674;9.242;2023-04-06T09:56:58;16.40;30.00
21502;DHT22;27639;48.674;9.242;2023-04-06T10:05:42;16.80;28.60
21502;DHT22;27639;48.674;9.242;2023-04-06T10:08:09;16.90;28.60
21502;DHT22;27639;48.674;9.242;2023-04-06T10:10:36;17.10;28.10
21502;DHT22;27639;48.674;9.242;2023-04-06T10:13:03;17.00;27.80
21502;DHT22;27639;48.674;9.242;2023-04-06T10:15:29;17.20;28.10
21502;DHT22;27639;48.674;9.242;2023-04-06T10:17:59;17.40;27.40
21502;DHT22;27639;48.674;9.242;2023-04-06T10:20:36;17.50;26.70
21502;DHT22;27639;48.674;9.242;2023-04-06T10:23:15;17.60;26.70
21502;DHT22;27639;48.674;9.242;2023-04-06T10:25:59;17.60;26.90
21502;DHT22;27639;48.674;9.242;2023-04-06T10:28:25;17.60;26.60
21502;DHT22;27639;48.674;9.242;2023-04-06T10:31:00;17.60;26.90
21502;DHT22;27639;48.674;9.242;2023-04-06T10:33:26;17.60;26.60
21502;DHT22;27639;48.674;9.242;2023-04-06T10:35:52;17.60;26.10
21502;DHT22;27639;48.674;9.242;2023-04-06T10:38:19;17.60;26.80
21502;DHT22;27639;48.674;9.242;2023-04-06T10:40:47;17.80;26.60
21502;DHT22;27639;48.674;9.242;2023-04-06T10:43:22;17.70;26.50
21502;DHT22;27639;48.674;9.242;2023-04-06T10:46:00;17.70;26.50
21502;DHT22;27639;48.674;9.242;2023-04-06T10:48:42;17.90;25.70
21502;DHT22;27639;48.674;9.242;2023-04-06T10:51:13;17.80;25.50
21502;DHT22;27639;48.674;9.242;2023-04-06T10:53:46;17.90;25.40
21502;DHT22;27639;48.674;9.242;2023-04-06T10:56:15;17.80;25.50
21502;DHT22;27639;48.674;9.242;2023-04-06T10:58:45;17.80;25.20
21502;DHT22;27639;48.674;9.242;2023-04-06T11:01:12;17.80;25.20
21502;DHT22;27639;48.674;9.242;2023-04-06T11:03:47;17.90;25.50
21502;DHT22;27639;48.674;9.242;2023-04-06T11:06:24;18.00;25.60
21502;DHT22;27639;48.674;9.242;2023-04-06T11:08:51;18.10;25.50
21502;DHT22;27639;48.674;9.242;2023-04-06T11:11:19;18.20;24.30
21502;DHT22;27639;48.674;9.242;2023-04-06T11:13:46;18.00;24.80
21502;DHT22;27639;48.674;9.242;2023-04-06T11:16:16;17.90;24.80
21502;DHT22;27639;48.674;9.242;2023-04-06T11:21:18;18.10;24.70
21502;DHT22;27639;48.674;9.242;2023-04-06T11:23:44;18.10;24.40
21502;DHT22;27639;48.674;9.242;2023-04-06T11:26:13;18.20;24.50
21502;DHT22;27639;48.674;9.242;2023-04-06T11:28:41;18.30;24.30
21502;DHT22;27639;48.674;9.242;2023-04-06T11:31:08;18.50;24.00
21502;DHT22;27639;48.674;9.242;2023-04-06T11:33:37;18.50;23.30
21502;DHT22;27639;48.674;9.242;2023-04-06T11:36:06;18.40;22.80
21502;DHT22;27639;48.674;9.242;2023-04-06T11:38:32;18.30;22.90
21502;DHT22;27639;48.674;9.242;2023-04-06T11:40:58;18.20;22.90
21502;DHT22;27639;48.674;9.242;2023-04-06T11:43:30;18.10;23.10
21502;DHT22;27639;48.674;9.242;2023-04-06T11:46:05;18.10;23.30
21502;DHT22;27639;48.674;9.242;2023-04-06T11:48:31;18.00;23.10
21502;DHT22;27639;48.674;9.242;2023-04-06T11:50:58;17.90;23.60
21502;DHT22;27639;48.674;9.242;2023-04-06T11:53:29;18.00;23.70
21502;DHT22;27639;48.674;9.242;2023-04-06T11:55:55;18.00;23.50
21502;DHT22;27639;48.674;9.242;2023-04-06T11:58:21;18.10;23.70
21502;DHT22;27639;48.674;9.242;2023-04-06T12:00:47;18.20;23.80
21502;DHT22;27639;48.674;9.242;2023-04-06T12:03:12;18.30;24.40
21502;DHT22;27639;48.674;9.242;2023-04-06T12:05:38;18.40;24.20
21502;DHT22;27639;48.674;9.242;2023-04-06T12:08:04;18.50;23.80
21502;DHT22;27639;48.674;9.242;2023-04-06T12:10:30;18.60;23.40
21502;DHT22;27639;48.674;9.242;2023-04-06T12:12:56;18.60;23.50
21502;DHT22;27639;48.674;9.242;2023-04-06T12:15:21;18.60;23.80
21502;DHT22;27639;48.674;9.242;2023-04-06T12:17:47;18.70;23.90
21502;DHT22;27639;48.674;9.242;2023-04-06T12:20:13;18.90;24.40
21502;DHT22;27639;48.674;9.242;2023-04-06T12:22:39;19.10;24.50
21502;DHT22;27639;48.674;9.242;2023-04-06T12:25:05;19.20;23.70
21502;DHT22;27639;48.674;9.242;2023-04-06T12:27:32;19.40;22.50
21502;DHT22;27639;48.674;9.242;2023-04-06T12:29:58;19.50;22.10
21502;DHT22;27639;48.674;9.242;2023-04-06T12:32:23;19.40;21.70
21502;DHT22;27639;48.674;9.242;2023-04-06T12:34:52;19.30;21.50
21502;DHT22;27639;48.674;9.242;2023-04-06T12:37:17;19.30;21.70
21502;DHT22;27639;48.674;9.242;2023-04-06T12:39:43;19.30;21.50
21502;DHT22;27639;48.674;9.242;2023-04-06T12:42:10;19.20;21.20
21502;DHT22;27639;48.674;9.242;2023-04-06T12:44:36;19.10;21.50
21502;DHT22;27639;48.674;9.242;2023-04-06T12:47:02;18.90;21.90
21502;DHT22;27639;48.674;9.242;2023-04-06T12:49:27;18.90;22.00
21502;DHT22;27639;48.674;9.242;2023-04-06T12:51:53;18.90;22.00
21502;DHT22;27639;48.674;9.242;2023-04-06T12:54:19;18.90;22.10
21502;DHT22;27639;48.674;9.242;2023-04-06T12:56:45;18.80;22.10
21502;DHT22;27639;48.674;9.242;2023-04-06T12:59:11;18.90;22.30
21502;DHT22;27639;48.674;9.242;2023-04-06T13:01:37;18.90;22.30
21502;DHT22;27639;48.674;9.242;2023-04-06T13:04:02;19.00;22.30
21502;DHT22;27639;48.674;9.242;2023-04-06T13:06:28;19.00;22.80
21502;DHT22;27639;48.674;9.242;2023-04-06T13:08:55;19.10;22.50
21502;DHT22;27639;48.674;9.242;2023-04-06T13:11:21;19.20;22.10
21502;DHT22;27639;48.674;9.242;2023-04-06T13:13:49;19.10;21.90
21502;DHT22;27639;48.674;9.242;2023-04-06T13:16:14;19.10;22.10
21502;DHT22;27639;48.674;9.242;2023-04-06T13:18:40;19.20;21.70
21502;DHT22;27639;48.674;9.242;2023-04-06T13:21:07;19.10;21.80
21502;DHT22;27639;48.674;9.242;2023-04-06T13:23:33;19.10;22.00
21502;DHT22;27639;48.674;9.242;2023-04-06T13:26:08;19.00;22.90
21502;DHT22;27639;48.674;9.242;2023-04-06T13:28:35;19.00;22.90
21502;DHT22;27639;48.674;9.242;2023-04-06T13:31:03;19.10;22.50
21502;DHT22;27639;48.674;9.242;2023-04-06T13:33:30;19.20;22.40
21502;DHT22;27639;48.674;9.242;2023-04-06T13:35:56;19.30;22.00
21502;DHT22;27639;48.674;9.242;2023-04-06T13:38:22;19.10;21.90
21502;DHT22;27639;48.674;9.242;2023-04-06T13:40:50;19.10;21.60
21502;DHT22;27639;48.674;9.242;2023-04-06T13:43:16;19.10;21.90
21502;DHT22;27639;48.674;9.242;2023-04-06T13:45:51;19.10;21.80
21502;DHT22;27639;48.674;9.242;2023-04-06T13:48:18;19.20;21.70
21502;DHT22;27639;48.674;9.242;2023-04-06T13:50:44;19.20;21.90
21502;DHT22;27639;48.674;9.242;2023-04-06T13:53:10;19.30;21.50
21502;DHT22;27639;48.674;9.242;2023-04-06T13:55:35;19.30;21.70
21502;DHT22;27639;48.674;9.242;2023-04-06T13:58:01;19.20;21.60
21502;DHT22;27639;48.674;9.242;2023-04-06T14:00:27;19.10;21.60
21502;DHT22;27639;48.674;9.242;2023-04-06T14:02:54;18.90;21.70
21502;DHT22;27639;48.674;9.242;2023-04-06T14:05:20;18.90;22.00
21502;DHT22;27639;48.674;9.242;2023-04-06T14:07:46;18.80;22.00
21502;DHT22;27639;48.674;9.242;2023-04-06T14:10:12;18.70;21.80
21502;DHT22;27639;48.674;9.242;2023-04-06T14:12:42;18.60;21.50
21502;DHT22;27639;48.674;9.242;2023-04-06T14:15:10;18.60;21.40
21502;DHT22;27639;48.674;9.242;2023-04-06T14:17:36;18.70;21.80
21502;DHT22;27639;48.674;9.242;2023-04-06T14:20:03;18.80;21.80
21502;DHT22;27639;48.674;9.242;2023-04-06T14:22:29;18.80;21.70
21502;DHT22;27639;48.674;9.242;2023-04-06T14:24:55;18.60;21.90
21502;DHT22;27639;48.674;9.242;2023-04-06T14:27:21;18.50;22.00
21502;DHT22;27639;48.674;9.242;2023-04-06T14:29:47;18.40;21.60
21502;DHT22;27639;48.674;9.242;2023-04-06T14:32:12;18.40;21.60
21502;DHT22;27639;48.674;9.242;2023-04-06T14:34:38;18.40;21.80
21502;DHT22;27639;48.674;9.242;2023-04-06T14:37:03;18.30;21.70
21502;DHT22;27639;48.674;9.242;2023-04-06T14:39:29;18.20;21.90
21502;DHT22;27639;48.674;9.242;2023-04-06T14:41:55;18.20;22.20
21502;DHT22;27639;48.674;9.242;2023-04-06T14:44:21;18.20;22.80
21502;DHT22;27639;48.674;9.242;2023-04-06T14:46:46;18.30;22.30
21502;DHT22;27639;48.674;9.242;2023-04-06T14:49:12;18.20;22.20
21502;DHT22;27639;48.674;9.242;2023-04-06T14:51:38;18.10;22.00
21502;DHT22;27639;48.674;9.242;2023-04-06T14:54:04;18.10;22.00
21502;DHT22;27639;48.674;9.242;2023-04-06T14:56:30;18.00;21.90
21502;DHT22;27639;48.674;9.242;2023-04-06T14:58:58;17.90;22.10
21502;DHT22;27639;48.674;9.242;2023-04-06T15:01:24;17.90;22.20
21502;DHT22;27639;48.674;9.242;2023-04-06T15:03:50;17.80;22.40
21502;DHT22;27639;48.674;9.242;2023-04-06T15:06:17;17.80;22.60
21502;DHT22;27639;48.674;9.242;2023-04-06T15:08:43;17.70;22.70
21502;DHT22;27639;48.674;9.242;2023-04-06T15:11:10;17.70;22.80
21502;DHT22;27639;48.674;9.242;2023-04-06T15:13:39;17.70;22.90
21502;DHT22;27639;48.674;9.242;2023-04-06T15:16:06;17.70;22.60
21502;DHT22;27639;48.674;9.242;2023-04-06T15:18:33;17.80;22.60
21502;DHT22;27639;48.674;9.242;2023-04-06T15:20:59;17.70;22.60
21502;DHT22;27639;48.674;9.242;2023-04-06T15:23:24;17.60;22.90
21502;DHT22;27639;48.674;9.242;2023-04-06T15:25:51;17.60;23.00
21502;DHT22;27639;48.674;9.242;2023-04-06T15:28:16;17.50;23.10
21502;DHT22;27639;48.674;9.242;2023-04-06T15:30:42;17.40;23.30
21502;DHT22;27639;48.674;9.242;2023-04-06T15:33:08;17.40;23.50
21502;DHT22;27639;48.674;9.242;2023-04-06T15:35:35;17.50;23.40
21502;DHT22;27639;48.674;9.242;2023-04-06T15:38:05;17.60;23.60
21502;DHT22;27639;48.674;9.242;2023-04-06T15:40:32;17.60;23.50
21502;DHT22;27639;48.674;9.242;2023-04-06T15:42:57;17.60;23.60